• Join FlightAware (Why Join?)
  • Login
  • US Flag 
06:52PM EDT


 

Airport Tracker/Info


-or-


 

Live Flight TrackerFlight Track Log ✈ FLG3306 ✈ 15-Nov-2013 ✈ KMCI - KMEM

Flight Track Log - Related Links

Times and Time Zones

All times are in EST time to prevent confusion due to time zone crossing. See the FLG3306 flight status page for this flight to view local times or setup timezone preferences in your user account.

Time Position Orientation Groundspeed Altitude Reporting Facility
EST Latitude Longitude Course Direction KTS MPH feet Rate Location/Type
07:22AM 39.2833 -94.7000 270° West 147 169 1,700  Level Kansas City TRACON
07:22AM 39.2833 -94.7167 270° West 146 168 2,100 1,620 Climbing Kansas City TRACON
07:23AM 39.2333 -94.7167 180° South 191 220 3,700 2,100 Climbing Kansas City TRACON
07:24AM 39.1381 -94.7058 175° South 244 281 7,200 2,400 Climbing Kansas City Center
07:25AM 39.0644 -94.6864 168° South 279 321 9,600 2,220 Climbing Kansas City Center
07:26AM 38.9681 -94.6619 169° South 315 362 11,800 2,280 Climbing Kansas City Center
07:27AM 38.8775 -94.6378 168° South 343 395 14,200 2,160 Climbing Kansas City Center
07:28AM 38.7825 -94.6128 168° South 360 414 16,200 2,280 Climbing Kansas City Center
07:29AM 38.6678 -94.5833 169° South 374 430 18,900 2,160 Climbing Kansas City Center
07:30AM 38.5672 -94.5581 169° South 382 440 20,600 1,680 Climbing Kansas City Center
07:31AM 38.4631 -94.5339 170° South 396 456 22,400 1,860 Climbing Kansas City Center
07:32AM 38.3414 -94.5017 168° South 399 459 24,500 1,800 Climbing Kansas City Center
07:33AM 38.2667 -94.3939 131° Southeast 423 487 26,100 1,380 Climbing Kansas City Center
07:34AM 38.1978 -94.2775 127° Southeast 427 491 27,400 1,320 Climbing Kansas City Center
07:35AM 38.1117 -94.1406 129° Southeast 441 507 28,800 1,140 Climbing Kansas City Center
07:36AM 38.0433 -94.0247 127° Southeast 453 521 29,800 1,020 Climbing Kansas City Center
07:37AM 37.9644 -93.8950 128° Southeast 461 531 30,900 1,500 Climbing Kansas City Center
07:38AM 37.8867 -93.7678 128° Southeast 458 527 32,900 1,440 Climbing Kansas City Center
07:39AM 37.8111 -93.6422 127° Southeast 450 518 33,900 840 Climbing Kansas City Center
07:40AM 37.7339 -93.5156 128° Southeast 453 521 34,600 540 Climbing Kansas City Center
07:42AM 37.6558 -93.3872 128° Southeast 458 527 35,000 180 Climbing Kansas City Center
07:43AM 37.5639 -93.2367 128° Southeast 455 524 35,000  Level Kansas City Center
07:44AM 37.4867 -93.1122 128° Southeast 453 521 35,000  Level Kansas City Center
07:45AM 37.4083 -92.9878 128° Southeast 453 521 35,000  Level Kansas City Center
07:46AM 37.3308 -92.8633 128° Southeast 452 520 35,000  Level Kansas City Center
07:47AM 37.2525 -92.7378 128° Southeast 455 524 35,000  Level Kansas City Center
07:48AM 37.1736 -92.6111 128° Southeast 458 527 35,000 -480 Level Kansas City Center
07:49AM 37.0953 -92.4867 128° Southeast 457 526 34,100 -1,020 Descending Kansas City Center
07:50AM 37.0164 -92.3631 129° Southeast 455 524 33,000 -600 Descending Kansas City Center
07:51AM 36.9381 -92.2389 128° Southeast 455 524 33,000  Level Kansas City Center
07:52AM 36.8606 -92.1156 128° Southeast 453 521 33,000  Level Kansas City Center
07:53AM 36.7817 -91.9936 129° Southeast 451 519 33,000 -420 Level Kansas City Center
07:54AM 36.7025 -91.8686 128° Southeast 455 524 32,200 -1,140 Descending Kansas City Center
07:55AM 36.6222 -91.7442 129° Southeast 459 528 30,900 -1,380 Descending Memphis Center
07:56AM 36.5433 -91.6197 128° Southeast 457 526 29,600 -1,320 Descending Memphis Center
07:57AM 36.4628 -91.4967 129° Southeast 455 524 28,300 -1,320 Descending Memphis Center
07:58AM 36.3872 -91.3808 129° Southeast 442 509 27,000 -1,320 Descending Memphis Center
07:59AM 36.3133 -91.2672 129° Southeast 430 495 25,700 -1,320 Descending Memphis Center
08:00AM 36.2414 -91.1558 129° Southeast 422 486 24,400 -1,320 Descending Memphis Center
08:01AM 36.1700 -91.0478 129° Southeast 412 474 23,100 -1,320 Descending Memphis Center
08:02AM 36.0931 -90.9525 135° Southeast 400 460 21,800 -1,260 Descending Memphis Center
08:03AM 35.9756 -90.9197 167° South 366 421 20,600 -1,320 Descending Memphis Center
08:04AM 35.8767 -90.8933 168° South 362 417 19,100 -1,380 Descending Memphis Center
08:05AM 35.7800 -90.8686 168° South 357 411 17,800 -1,440 Descending Memphis Center
08:06AM 35.6886 -90.8444 168° South 352 405 16,200 -1,620 Descending Memphis Center
08:07AM 35.5911 -90.8203 169° South 352 405 14,500 -1,860 Descending Memphis Center
08:08AM 35.4956 -90.7953 168° South 346 398 12,400 -2,220 Descending Memphis Center
08:09AM 35.4339 -90.7064 130° Southeast 359 413 10,000 -1,380 Descending Memphis Center
08:10AM 35.4161 -90.6003 102° East 323 372 9,600 -900 Descending Memphis Center
08:11AM 35.4144 -90.5019 91° East 293 337 8,200 -1,500 Descending Memphis Center
08:12AM 35.4081 -90.3911 94° East 279 321 6,600 -1,080 Descending Memphis Center
08:13AM 35.4053 -90.3006 92° East 269 310 6,000 -300 Descending Memphis Center
08:14AM 35.3994 -90.2189 95° East 245 282 6,000  Level Memphis Center
08:15AM 35.3800 -90.1447 108° East 231 266 6,000 -420 Level Memphis Center
08:16AM 35.3586 -90.0728 110° East 224 258 5,200 -1,020 Descending Memphis Center
08:17AM 35.3169 -90.0247 137° Southeast 207 238 4,000 -540 Descending Memphis Center
08:18AM 35.2500 -89.9833 153° Southeast 196 226 4,000 -240 Level KMEM
08:19AM 35.2000 -89.9833 180° South 187 215 3,500 -900 Descending KMEM
08:20AM 35.1500 -89.9833 180° South 181 208 2,400 -960 Descending KMEM
08:21AM 35.1167 -89.9833 180° South 145 167 1,500 -780 Descending KMEM
08:22AM 35.0667 -89.9833 180° South 120 138 700 -780 Descending KMEM
08:25AM 35.0424 -89.9767 171° South  Level Estimated